createdAt,value
2022-11-13T00:01:53.108Z,64
2022-11-13T00:03:32.858Z,65
2022-11-13T00:05:12.631Z,64
2022-11-13T00:06:52.376Z,65
2022-11-13T00:08:32.144Z,64
2022-11-13T00:10:11.922Z,65
2022-11-13T00:11:51.681Z,64
2022-11-13T00:13:31.461Z,65
2022-11-13T00:15:11.196Z,64
2022-11-13T00:16:50.961Z,64
2022-11-13T00:18:30.731Z,64
2022-11-13T00:20:10.515Z,64
2022-11-13T00:23:30.016Z,64
2022-11-13T00:25:09.789Z,64
2022-11-13T00:26:49.557Z,64
2022-11-13T00:28:29.328Z,64
2022-11-13T00:33:28.600Z,64
2022-11-13T00:35:08.370Z,64
2022-11-13T00:36:48.228Z,64
2022-11-13T00:38:27.902Z,64
2022-11-13T00:40:07.704Z,64
2022-11-13T00:41:47.420Z,64
2022-11-13T00:43:27.185Z,64
2022-11-13T00:45:06.958Z,64
2022-11-13T00:48:26.480Z,63
2022-11-13T00:50:06.248Z,64
2022-11-13T00:53:25.774Z,64
2022-11-13T00:55:05.576Z,64
2022-11-13T00:56:45.301Z,64
2022-11-13T00:58:25.062Z,64
2022-11-13T01:01:44.646Z,63
2022-11-13T01:05:04.122Z,63
2022-11-13T01:08:23.640Z,63
2022-11-13T01:11:43.225Z,63
2022-11-13T01:13:22.972Z,64
2022-11-13T01:15:02.694Z,63
2022-11-13T01:16:42.464Z,63
2022-11-13T01:18:22.271Z,63
2022-11-13T01:21:41.750Z,63
2022-11-13T01:23:21.555Z,64
2022-11-13T01:26:41.045Z,63
2022-11-13T01:28:20.809Z,64
2022-11-13T01:30:00.597Z,63
2022-11-13T01:31:40.339Z,63
2022-11-13T01:33:20.097Z,63
2022-11-13T01:34:59.871Z,63
2022-11-13T01:36:39.651Z,63
2022-11-13T01:38:19.422Z,63
2022-11-13T01:41:38.934Z,63
2022-11-13T01:43:18.691Z,63
2022-11-13T01:44:58.456Z,64
2022-11-13T01:46:38.220Z,63
2022-11-13T01:48:18.004Z,63
2022-11-13T01:51:37.523Z,63
2022-11-13T01:53:17.279Z,63
2022-11-13T01:56:36.796Z,63
2022-11-13T01:58:16.548Z,63
2022-11-13T01:59:56.325Z,64
2022-11-13T02:01:36.100Z,63
2022-11-13T02:03:15.900Z,63
2022-11-13T02:04:55.614Z,63
2022-11-13T02:06:35.423Z,63
2022-11-13T02:08:15.158Z,63
2022-11-13T02:11:34.680Z,63
2022-11-13T02:13:14.482Z,63
2022-11-13T02:14:54.205Z,63
2022-11-13T02:16:33.957Z,63
2022-11-13T02:18:13.722Z,62
2022-11-13T02:19:53.499Z,63
2022-11-13T02:21:33.266Z,63
2022-11-13T02:24:52.783Z,63
2022-11-13T02:26:32.543Z,63
2022-11-13T02:28:12.318Z,63
2022-11-13T02:29:52.089Z,62
2022-11-13T02:33:11.604Z,62
2022-11-13T02:34:51.407Z,63
2022-11-13T02:36:31.151Z,63
2022-11-13T02:38:10.889Z,63
2022-11-13T02:39:50.663Z,62
2022-11-13T02:41:30.435Z,62
2022-11-13T02:43:10.197Z,63
2022-11-13T02:44:49.951Z,62
2022-11-13T02:46:29.723Z,62
2022-11-13T02:48:09.487Z,63
2022-11-13T02:49:49.235Z,62
2022-11-13T02:51:29.016Z,62
2022-11-13T02:53:08.763Z,62
2022-11-13T02:54:48.531Z,62
2022-11-13T02:59:47.823Z,63
2022-11-13T03:01:27.582Z,62
2022-11-13T03:03:07.356Z,63
2022-11-13T03:04:47.116Z,62
2022-11-13T03:08:06.654Z,63
2022-11-13T03:11:26.181Z,62
2022-11-13T03:13:06.149Z,62
2022-11-13T03:14:45.848Z,63
2022-11-13T03:16:25.557Z,63
2022-11-13T03:18:05.287Z,62
2022-11-13T03:21:24.835Z,62
2022-11-13T03:23:04.515Z,62
2022-11-13T03:24:44.296Z,62
2022-11-13T03:26:24.058Z,62
2022-11-13T03:28:03.819Z,62
2022-11-13T03:31:23.398Z,61
2022-11-13T03:33:03.110Z,61
2022-11-13T03:36:22.626Z,62
2022-11-13T03:38:02.387Z,62
2022-11-13T03:39:42.162Z,61
2022-11-13T03:41:22.004Z,62
2022-11-13T03:43:01.674Z,62
2022-11-13T03:44:41.490Z,62
2022-11-13T03:46:21.252Z,62
2022-11-13T03:48:01.007Z,62
2022-11-13T03:49:40.738Z,61
2022-11-13T03:51:20.531Z,61
2022-11-13T03:56:19.788Z,62
2022-11-13T03:57:59.568Z,62
2022-11-13T03:59:39.331Z,61
2022-11-13T04:01:19.099Z,61
2022-11-13T04:02:58.933Z,62
2022-11-13T04:04:38.613Z,61
2022-11-13T04:06:18.396Z,61
2022-11-13T04:07:58.156Z,61
2022-11-13T04:09:37.903Z,61
2022-11-13T04:11:17.706Z,61
2022-11-13T04:12:57.425Z,61
2022-11-13T04:14:37.199Z,61
2022-11-13T04:16:16.984Z,61
2022-11-13T04:17:56.755Z,61
2022-11-13T04:19:36.484Z,61
2022-11-13T04:21:16.263Z,61
2022-11-13T04:22:56.030Z,61
2022-11-13T04:24:35.786Z,61
2022-11-13T04:27:55.309Z,60
2022-11-13T04:29:35.062Z,61
2022-11-13T04:31:14.885Z,60
2022-11-13T04:32:54.757Z,60
2022-11-13T04:34:34.496Z,60
2022-11-13T04:37:54.031Z,61
2022-11-13T04:39:33.809Z,61
2022-11-13T04:41:13.625Z,61
2022-11-13T04:42:53.365Z,60
2022-11-13T04:44:33.158Z,60
2022-11-13T04:46:12.864Z,60
2022-11-13T04:47:52.670Z,60
2022-11-13T04:51:12.146Z,61
2022-11-13T04:52:51.942Z,61
2022-11-13T04:54:31.670Z,60
2022-11-13T04:57:51.226Z,60
2022-11-13T05:01:10.937Z,60
2022-11-13T05:02:50.536Z,60
2022-11-13T05:04:30.249Z,59
2022-11-13T05:06:10.035Z,59
2022-11-13T05:07:49.786Z,59
2022-11-13T05:09:29.551Z,59
2022-11-13T05:11:09.333Z,59
2022-11-13T05:12:49.236Z,60
2022-11-13T05:14:28.849Z,60
2022-11-13T05:17:48.367Z,59
2022-11-13T05:19:28.151Z,59
2022-11-13T05:21:07.900Z,59
2022-11-13T05:22:47.666Z,59
2022-11-13T05:24:27.427Z,58
2022-11-13T05:26:07.188Z,58
2022-11-13T05:27:46.951Z,58
2022-11-13T05:29:26.707Z,58
2022-11-13T05:31:06.478Z,58
2022-11-13T05:32:46.244Z,59
2022-11-13T05:34:26.011Z,58
2022-11-13T05:37:45.537Z,58
2022-11-13T05:39:25.305Z,58
2022-11-13T05:41:05.062Z,58
2022-11-13T05:42:44.832Z,57
2022-11-13T05:44:24.581Z,58
2022-11-13T05:46:04.351Z,58
2022-11-13T05:47:44.127Z,58
2022-11-13T05:51:03.639Z,58
2022-11-13T05:52:43.417Z,58
2022-11-13T05:54:23.173Z,58
2022-11-13T05:56:02.942Z,58
2022-11-13T05:57:42.691Z,57
2022-11-13T05:59:22.468Z,58
2022-11-13T06:01:02.231Z,57
2022-11-13T06:02:41.992Z,57
2022-11-13T06:04:21.763Z,57
2022-11-13T06:06:01.506Z,57
2022-11-13T06:07:41.282Z,57
2022-11-13T06:09:21.052Z,57
2022-11-13T06:11:00.800Z,58
2022-11-13T06:12:40.571Z,57
2022-11-13T06:14:20.339Z,57
2022-11-13T06:16:00.109Z,57
2022-11-13T06:17:39.903Z,57
2022-11-13T06:19:19.634Z,57
2022-11-13T06:20:59.387Z,57
2022-11-13T06:22:39.174Z,57
2022-11-13T06:24:18.931Z,57
2022-11-13T06:25:58.701Z,57
2022-11-13T06:27:38.453Z,57
2022-11-13T06:29:18.214Z,57
2022-11-13T06:30:57.973Z,57
2022-11-13T06:32:37.863Z,57
2022-11-13T06:34:17.497Z,58
2022-11-13T06:35:57.263Z,57
2022-11-13T06:37:37.043Z,57
2022-11-13T06:39:16.810Z,57
2022-11-13T06:40:56.557Z,58
2022-11-13T06:42:36.321Z,58
2022-11-13T06:44:16.078Z,57
2022-11-13T06:45:55.861Z,57
2022-11-13T06:47:35.619Z,57
2022-11-13T06:49:15.396Z,57
2022-11-13T06:50:55.145Z,57
2022-11-13T06:52:34.911Z,57
2022-11-13T06:54:14.657Z,58
2022-11-13T06:55:54.424Z,57
2022-11-13T06:57:34.207Z,58
2022-11-13T06:59:13.954Z,58
2022-11-13T07:00:53.733Z,58
2022-11-13T07:02:33.504Z,57
2022-11-13T07:04:13.294Z,58
2022-11-13T07:07:32.797Z,58
2022-11-13T07:09:12.652Z,58
2022-11-13T07:10:52.318Z,58
2022-11-13T07:12:32.080Z,58
2022-11-13T07:14:11.883Z,57
2022-11-13T07:15:51.645Z,57
2022-11-13T07:17:31.437Z,58
2022-11-13T07:19:11.122Z,57
2022-11-13T07:20:50.893Z,57
2022-11-13T07:24:10.419Z,57
2022-11-13T07:25:50.238Z,57
2022-11-13T07:27:29.943Z,57
2022-11-13T07:29:09.724Z,58
2022-11-13T07:30:49.485Z,58
2022-11-13T07:32:29.230Z,58
2022-11-13T07:34:09.063Z,57
2022-11-13T07:37:28.539Z,57
2022-11-13T07:39:08.345Z,58
2022-11-13T07:40:48.055Z,58
2022-11-13T07:42:27.870Z,58
2022-11-13T07:44:07.595Z,58
2022-11-13T07:45:47.350Z,58
2022-11-13T07:47:27.195Z,58
2022-11-13T07:49:06.914Z,58
2022-11-13T07:50:46.631Z,58
2022-11-13T07:52:26.416Z,59
2022-11-13T07:54:06.186Z,59
2022-11-13T07:57:25.692Z,60
2022-11-13T07:59:05.469Z,61
2022-11-13T08:00:45.242Z,61
2022-11-13T08:02:24.990Z,62
2022-11-13T08:04:04.903Z,62
2022-11-13T08:07:24.290Z,64
2022-11-13T08:10:43.842Z,64
2022-11-13T08:14:03.421Z,65
2022-11-13T08:15:43.126Z,65
2022-11-13T08:17:22.854Z,65
2022-11-13T08:19:02.638Z,66
2022-11-13T08:20:42.397Z,67
2022-11-13T08:22:22.154Z,67
2022-11-13T08:24:01.939Z,69
2022-11-13T08:27:21.501Z,70
2022-11-13T08:29:01.214Z,72
2022-11-13T08:30:40.977Z,72
2022-11-13T08:32:20.751Z,73
2022-11-13T08:34:00.505Z,75
2022-11-13T08:37:20.036Z,78
2022-11-13T08:38:59.788Z,79
2022-11-13T08:40:39.560Z,80
2022-11-13T08:42:19.320Z,81
2022-11-13T08:43:59.084Z,83
2022-11-13T08:47:18.646Z,84
2022-11-13T08:48:58.387Z,85
2022-11-13T08:50:38.143Z,85
2022-11-13T08:52:17.902Z,85
2022-11-13T08:53:57.678Z,84
2022-11-13T08:55:37.446Z,85
2022-11-13T08:57:17.192Z,85
2022-11-13T08:58:56.952Z,84
2022-11-13T09:00:36.729Z,84
2022-11-13T09:02:16.566Z,85
2022-11-13T09:03:56.257Z,85
2022-11-13T09:08:55.543Z,85
2022-11-13T09:10:35.313Z,85
2022-11-13T09:12:15.196Z,85
2022-11-13T09:13:54.845Z,86
2022-11-13T09:17:14.373Z,86
2022-11-13T09:20:33.893Z,86
2022-11-13T09:22:13.679Z,86
2022-11-13T09:23:53.423Z,86
2022-11-13T09:25:33.209Z,86
2022-11-13T09:27:12.968Z,85
2022-11-13T09:28:52.733Z,85
2022-11-13T09:30:32.671Z,85
2022-11-13T09:32:12.264Z,85
2022-11-13T09:33:52.114Z,85
2022-11-13T09:35:31.781Z,86
2022-11-13T09:37:11.542Z,87
2022-11-13T09:38:51.322Z,88
2022-11-13T09:40:31.078Z,89
2022-11-13T09:42:10.857Z,89
2022-11-13T09:43:50.634Z,89
2022-11-13T09:45:30.385Z,93
2022-11-13T09:47:10.149Z,90
2022-11-13T09:48:49.918Z,90
2022-11-13T09:50:29.676Z,91
2022-11-13T09:52:09.444Z,90
2022-11-13T09:57:08.781Z,91
2022-11-13T09:58:48.531Z,91
2022-11-13T10:00:28.289Z,91
2022-11-13T10:02:08.057Z,91
2022-11-13T10:03:47.819Z,90
2022-11-13T10:05:27.633Z,92
2022-11-13T10:07:07.368Z,93
2022-11-13T10:08:47.112Z,93
2022-11-13T10:10:26.883Z,94
2022-11-13T10:12:06.652Z,94
2022-11-13T10:13:46.426Z,95
2022-11-13T10:17:05.981Z,95
2022-11-13T10:18:45.719Z,95
2022-11-13T10:20:25.502Z,96
2022-11-13T10:22:05.251Z,96
2022-11-13T10:23:45.017Z,97
2022-11-13T10:25:24.829Z,96
2022-11-13T10:27:04.557Z,97
2022-11-13T10:28:44.369Z,98
2022-11-13T10:30:24.098Z,98
2022-11-13T10:32:03.842Z,99
2022-11-13T10:33:43.634Z,98
2022-11-13T10:35:23.386Z,100
2022-11-13T10:37:03.139Z,100
2022-11-13T10:38:42.992Z,100
2022-11-13T10:40:22.692Z,100
2022-11-13T10:42:02.556Z,100
2022-11-13T10:47:01.754Z,100
2022-11-13T10:48:41.511Z,100
2022-11-13T10:50:21.287Z,100
2022-11-13T10:53:40.808Z,100
2022-11-13T10:55:20.573Z,100
2022-11-13T10:57:00.339Z,100
2022-11-13T10:58:40.117Z,100
2022-11-13T11:00:19.872Z,100
2022-11-13T11:01:59.642Z,100
2022-11-13T11:03:39.451Z,100
2022-11-13T11:05:19.164Z,100
2022-11-13T11:06:58.933Z,100
2022-11-13T11:08:38.707Z,100
2022-11-13T11:11:58.224Z,100
2022-11-13T11:13:37.985Z,100
2022-11-13T11:16:57.510Z,100
2022-11-13T11:18:37.267Z,100
2022-11-13T11:20:17.047Z,100
2022-11-13T11:21:56.869Z,100
2022-11-13T11:23:36.568Z,100
2022-11-13T11:26:56.095Z,100
2022-11-13T11:28:35.850Z,100
2022-11-13T11:30:15.621Z,100
2022-11-13T11:31:55.390Z,100
2022-11-13T11:33:35.160Z,100
2022-11-13T11:35:14.915Z,100
2022-11-13T11:36:54.684Z,100
2022-11-13T11:40:14.279Z,100
2022-11-13T11:41:53.978Z,100
2022-11-13T11:43:33.726Z,100
2022-11-13T11:45:13.508Z,100
2022-11-13T11:46:53.315Z,100
2022-11-13T11:48:33.094Z,100
2022-11-13T11:50:12.798Z,100
2022-11-13T11:51:52.544Z,100
2022-11-13T11:53:32.312Z,100
2022-11-13T11:56:51.899Z,100
2022-11-13T11:58:31.604Z,100
2022-11-13T12:00:11.371Z,100
2022-11-13T12:01:51.142Z,100
2022-11-13T12:03:30.895Z,100
2022-11-13T12:05:10.658Z,100
2022-11-13T12:06:50.430Z,100
2022-11-13T12:08:30.199Z,100
2022-11-13T12:10:09.957Z,100
2022-11-13T12:11:49.722Z,100
2022-11-13T12:13:29.491Z,100
2022-11-13T12:15:09.253Z,100
2022-11-13T12:16:49.029Z,100
2022-11-13T12:18:28.804Z,100
2022-11-13T12:20:08.533Z,100
2022-11-13T12:21:48.305Z,100
2022-11-13T12:23:28.075Z,100
2022-11-13T12:25:07.833Z,100
2022-11-13T12:26:47.595Z,100
2022-11-13T12:28:27.359Z,100
2022-11-13T12:30:07.123Z,100
2022-11-13T12:31:46.949Z,100
2022-11-13T12:33:26.639Z,100
2022-11-13T12:36:46.188Z,100
2022-11-13T12:38:25.934Z,100
2022-11-13T12:40:05.703Z,100
2022-11-13T12:41:45.543Z,100
2022-11-13T12:45:05.079Z,95
2022-11-13T12:46:44.764Z,99
2022-11-13T12:48:24.512Z,99
2022-11-13T12:50:04.288Z,99
2022-11-13T12:51:44.047Z,100
2022-11-13T12:53:23.889Z,100
2022-11-13T12:55:03.658Z,99
2022-11-13T12:56:43.329Z,98
2022-11-13T12:58:23.102Z,99
2022-11-13T13:00:02.889Z,99
2022-11-13T13:01:42.629Z,99
2022-11-13T13:03:22.395Z,99
2022-11-13T13:05:02.159Z,99
2022-11-13T13:06:41.928Z,98
2022-11-13T13:08:21.727Z,100
2022-11-13T13:10:01.536Z,99
2022-11-13T13:11:41.215Z,99
2022-11-13T13:13:20.979Z,98
2022-11-13T13:15:00.741Z,99
2022-11-13T13:16:40.502Z,99
2022-11-13T13:20:00.052Z,99
2022-11-13T13:21:39.798Z,99
2022-11-13T13:23:19.554Z,98
2022-11-13T13:24:59.333Z,100
2022-11-13T13:26:39.103Z,99
2022-11-13T13:28:18.843Z,98
2022-11-13T13:29:58.611Z,100
2022-11-13T13:31:38.393Z,100
2022-11-13T13:33:18.141Z,99
2022-11-13T13:34:57.911Z,100
2022-11-13T13:36:37.737Z,100
2022-11-13T13:38:17.431Z,99
2022-11-13T13:39:57.202Z,100
2022-11-13T13:41:37.017Z,99
2022-11-13T13:43:16.780Z,99
2022-11-13T13:46:36.287Z,99
2022-11-13T13:48:16.016Z,100
2022-11-13T13:49:55.875Z,99
2022-11-13T13:51:35.556Z,100
2022-11-13T13:53:15.370Z,98
2022-11-13T13:54:55.148Z,99
2022-11-13T13:56:34.899Z,100
2022-11-13T13:58:14.607Z,99
2022-11-13T13:59:54.385Z,99
2022-11-13T14:01:34.156Z,100
2022-11-13T14:03:13.901Z,99
2022-11-13T14:06:33.605Z,98
2022-11-13T14:08:13.431Z,98
2022-11-13T14:09:53.126Z,100
2022-11-13T14:11:32.863Z,100
2022-11-13T14:13:12.614Z,99
2022-11-13T14:16:32.170Z,98
2022-11-13T14:18:11.950Z,98
2022-11-13T14:19:51.779Z,98
2022-11-13T14:21:31.428Z,99
2022-11-13T14:23:11.240Z,99
2022-11-13T14:26:30.593Z,99
2022-11-13T14:28:10.489Z,99
2022-11-13T14:29:50.131Z,98
2022-11-13T14:31:30.055Z,100
2022-11-13T14:33:09.803Z,100
2022-11-13T14:34:49.572Z,100
2022-11-13T14:36:29.354Z,99
2022-11-13T14:38:09.051Z,98
2022-11-13T14:39:48.880Z,98
2022-11-13T14:41:28.633Z,99
2022-11-13T14:46:27.919Z,98
2022-11-13T14:49:47.286Z,100
2022-11-13T14:51:27.274Z,98
2022-11-13T14:53:07.061Z,93
2022-11-13T14:54:46.727Z,87
2022-11-13T14:56:26.536Z,84
2022-11-13T14:58:06.230Z,82
2022-11-13T14:59:45.867Z,81
2022-11-13T15:01:25.633Z,80
2022-11-13T15:03:05.615Z,79
2022-11-13T15:04:45.351Z,78
2022-11-13T15:06:25.081Z,77
2022-11-13T15:08:04.837Z,76
2022-11-13T15:09:44.637Z,75
2022-11-13T15:11:24.420Z,75
2022-11-13T15:13:04.145Z,75
2022-11-13T15:16:23.690Z,74
2022-11-13T15:18:03.452Z,74
2022-11-13T15:19:43.269Z,73
2022-11-13T15:21:22.797Z,73
2022-11-13T15:23:02.570Z,72
2022-11-13T15:24:42.478Z,72
2022-11-13T15:26:22.271Z,71
2022-11-13T15:29:41.811Z,71
2022-11-13T15:33:01.322Z,71
2022-11-13T15:36:20.851Z,71
2022-11-13T15:38:00.612Z,71
2022-11-13T15:39:40.205Z,71
2022-11-13T15:42:59.918Z,70
2022-11-13T15:46:19.435Z,70
2022-11-13T15:47:59.188Z,70
2022-11-13T15:49:38.965Z,70
2022-11-13T15:51:18.783Z,70
2022-11-13T15:52:58.468Z,70
2022-11-13T15:56:18.012Z,69
2022-11-13T15:57:57.784Z,70
2022-11-13T15:59:37.523Z,70
2022-11-13T16:01:17.267Z,69
2022-11-13T16:02:57.055Z,69
2022-11-13T16:06:16.645Z,69
2022-11-13T16:09:36.105Z,69
2022-11-13T16:11:15.910Z,69
2022-11-13T16:12:55.668Z,69
2022-11-13T16:16:15.219Z,69
2022-11-13T16:19:34.718Z,69
2022-11-13T16:21:14.445Z,68
2022-11-13T16:22:54.271Z,69
2022-11-13T16:26:13.794Z,68
2022-11-13T16:27:53.340Z,68
2022-11-13T16:31:12.968Z,68
2022-11-13T16:32:52.657Z,69
2022-11-13T16:34:32.587Z,68
2022-11-13T16:36:12.356Z,68
2022-11-13T16:39:31.906Z,68
2022-11-13T16:41:11.620Z,68
2022-11-13T16:42:51.396Z,69
2022-11-13T16:44:31.198Z,69
2022-11-13T16:46:10.930Z,68
2022-11-13T16:47:50.788Z,68
2022-11-13T16:49:30.458Z,68
2022-11-13T16:51:10.221Z,68
2022-11-13T16:52:49.983Z,69
2022-11-13T16:56:09.517Z,68
2022-11-13T16:57:49.295Z,69
2022-11-13T16:59:29.052Z,68
2022-11-13T17:01:08.825Z,68
2022-11-13T17:02:48.574Z,69
2022-11-13T17:04:28.368Z,68
2022-11-13T17:06:08.047Z,68
2022-11-13T17:07:47.858Z,68
2022-11-13T17:09:27.617Z,68
2022-11-13T17:11:07.382Z,68
2022-11-13T17:12:47.176Z,68
2022-11-13T17:14:26.788Z,68
2022-11-13T17:16:06.693Z,67
2022-11-13T17:17:46.434Z,68
2022-11-13T17:19:26.262Z,68
2022-11-13T17:21:05.797Z,67
2022-11-13T17:22:45.722Z,67
2022-11-13T17:24:25.467Z,67
2022-11-13T17:27:44.965Z,68
2022-11-13T17:29:24.787Z,68
2022-11-13T17:31:04.509Z,67
2022-11-13T17:32:44.332Z,67
2022-11-13T17:36:03.856Z,67
2022-11-13T17:39:23.195Z,67
2022-11-13T17:42:42.893Z,67
2022-11-13T17:46:02.469Z,66
2022-11-13T17:47:42.234Z,67
2022-11-13T17:49:21.978Z,67
2022-11-13T17:51:01.699Z,66
2022-11-13T17:52:41.456Z,68
2022-11-13T17:54:21.247Z,67
2022-11-13T17:56:01.048Z,66
2022-11-13T17:57:40.770Z,67
2022-11-13T17:59:20.599Z,67
2022-11-13T18:01:00.290Z,66
2022-11-13T18:04:19.878Z,67
2022-11-13T18:05:59.591Z,67
2022-11-13T18:09:19.124Z,67
2022-11-13T18:10:58.881Z,66
2022-11-13T18:12:38.589Z,66
2022-11-13T18:17:37.959Z,66
2022-11-13T18:20:57.356Z,66
2022-11-13T18:22:37.085Z,66
2022-11-13T18:24:17.001Z,67
2022-11-13T18:25:56.759Z,66
2022-11-13T18:27:36.452Z,67
2022-11-13T18:29:16.116Z,67
2022-11-13T18:30:55.970Z,66
2022-11-13T18:32:35.665Z,66
2022-11-13T18:34:15.571Z,66
2022-11-13T18:35:55.163Z,66
2022-11-13T18:37:34.936Z,67
2022-11-13T18:39:14.818Z,67
2022-11-13T18:40:54.527Z,67
2022-11-13T18:42:34.297Z,66
2022-11-13T18:45:53.761Z,66
2022-11-13T18:47:33.516Z,66
2022-11-13T18:49:13.287Z,67
2022-11-13T18:50:53.084Z,67
2022-11-13T18:52:32.972Z,66
2022-11-13T18:54:12.759Z,66
2022-11-13T18:57:32.273Z,66
2022-11-13T18:59:11.974Z,66
2022-11-13T19:00:51.801Z,67
2022-11-13T19:02:31.548Z,66
2022-11-13T19:04:11.172Z,66
2022-11-13T19:05:51.051Z,66
2022-11-13T19:07:30.835Z,66
2022-11-13T19:09:10.590Z,66
2022-11-13T19:10:50.343Z,66
2022-11-13T19:12:30.044Z,66
2022-11-13T19:14:09.929Z,66
2022-11-13T19:15:49.617Z,67
2022-11-13T19:17:29.413Z,66
2022-11-13T19:19:09.171Z,67
2022-11-13T19:20:48.779Z,66
2022-11-13T19:22:28.610Z,66
2022-11-13T19:24:08.438Z,66
2022-11-13T19:25:48.198Z,66
2022-11-13T19:27:27.841Z,66
2022-11-13T19:29:07.708Z,66
2022-11-13T19:32:27.290Z,66
2022-11-13T19:35:46.666Z,66
2022-11-13T19:39:06.277Z,66
2022-11-13T19:40:46.085Z,66
2022-11-13T19:42:25.736Z,66
2022-11-13T19:45:45.252Z,66
2022-11-13T19:47:25.211Z,66
2022-11-13T19:49:04.951Z,65
2022-11-13T19:50:44.734Z,65
2022-11-13T19:52:24.443Z,66
2022-11-13T19:55:44.018Z,66
2022-11-13T19:57:23.750Z,65
2022-11-13T19:59:03.543Z,65
2022-11-13T20:00:43.233Z,66
2022-11-13T20:02:23.042Z,66
2022-11-13T20:05:42.539Z,65
2022-11-13T20:07:22.281Z,65
2022-11-13T20:09:01.944Z,66
2022-11-13T20:10:41.940Z,66
2022-11-13T20:12:21.693Z,65
2022-11-13T20:14:01.288Z,66
2022-11-13T20:15:41.116Z,66
2022-11-13T20:17:20.946Z,66
2022-11-13T20:19:00.663Z,65
2022-11-13T20:20:40.306Z,65
2022-11-13T20:22:20.209Z,65
2022-11-13T20:23:59.959Z,65
2022-11-13T20:25:39.678Z,65
2022-11-13T20:27:19.452Z,65
2022-11-13T20:28:59.263Z,65
2022-11-13T20:30:38.882Z,65
2022-11-13T20:32:18.687Z,65
2022-11-13T20:33:58.543Z,65
2022-11-13T20:35:38.159Z,65
2022-11-13T20:38:57.784Z,65
2022-11-13T20:40:37.550Z,65
2022-11-13T20:42:17.423Z,66
2022-11-13T20:45:36.785Z,65
2022-11-13T20:47:16.558Z,66
2022-11-13T20:48:56.417Z,65
2022-11-13T20:50:36.204Z,65
2022-11-13T20:52:15.890Z,65
2022-11-13T20:53:55.691Z,65
2022-11-13T20:55:35.414Z,65
2022-11-13T20:57:15.157Z,66
2022-11-13T20:58:55.056Z,65
2022-11-13T21:00:34.861Z,65
2022-11-13T21:02:14.453Z,64
2022-11-13T21:05:34.109Z,64
2022-11-13T21:08:53.441Z,64
2022-11-13T21:10:33.345Z,64
2022-11-13T21:12:12.960Z,65
2022-11-13T21:13:52.834Z,64
2022-11-13T21:15:32.507Z,65
2022-11-13T21:18:52.219Z,64
2022-11-13T21:20:31.926Z,65
2022-11-13T21:22:11.778Z,64
2022-11-13T21:23:51.439Z,64
2022-11-13T21:25:31.115Z,64
2022-11-13T21:27:10.882Z,64
2022-11-13T21:28:50.752Z,64
2022-11-13T21:30:30.360Z,65
2022-11-13T21:32:10.129Z,65
2022-11-13T21:33:49.912Z,64
2022-11-13T21:35:29.696Z,65
2022-11-13T21:37:09.416Z,64
2022-11-13T21:38:49.316Z,65
2022-11-13T21:42:08.826Z,64
2022-11-13T21:43:48.515Z,64
2022-11-13T21:45:28.257Z,64
2022-11-13T21:47:08.000Z,64
2022-11-13T21:48:47.844Z,64
2022-11-13T21:52:07.344Z,64
2022-11-13T21:55:26.855Z,64
2022-11-13T21:58:46.419Z,64
2022-11-13T22:00:26.184Z,64
2022-11-13T22:02:05.964Z,64
2022-11-13T22:05:25.439Z,64
2022-11-13T22:07:05.180Z,64
2022-11-13T22:08:45.041Z,64
2022-11-13T22:10:24.752Z,64
2022-11-13T22:12:04.499Z,64
2022-11-13T22:15:24.068Z,64
2022-11-13T22:17:03.786Z,64
2022-11-13T22:18:43.525Z,64
2022-11-13T22:20:23.445Z,64
2022-11-13T22:23:42.852Z,64
2022-11-13T22:25:22.622Z,64
2022-11-13T22:27:02.586Z,64
2022-11-13T22:28:42.332Z,64
2022-11-13T22:30:21.948Z,64
2022-11-13T22:32:01.812Z,64
2022-11-13T22:35:21.198Z,64
2022-11-13T22:37:01.031Z,64
2022-11-13T22:38:40.835Z,64
2022-11-13T22:40:20.498Z,64
2022-11-13T22:42:00.224Z,64
2022-11-13T22:43:39.998Z,64
2022-11-13T22:45:19.742Z,64
2022-11-13T22:46:59.652Z,64
2022-11-13T22:48:39.284Z,64
2022-11-13T22:50:19.043Z,65
2022-11-13T22:51:58.892Z,64
2022-11-13T22:53:38.561Z,64
2022-11-13T22:55:18.444Z,64
2022-11-13T22:56:58.168Z,64
2022-11-13T22:58:37.938Z,64
2022-11-13T23:00:17.619Z,64
2022-11-13T23:03:37.139Z,63
2022-11-13T23:05:17.004Z,64
2022-11-13T23:06:56.752Z,63
2022-11-13T23:08:36.544Z,64
2022-11-13T23:10:16.276Z,64
2022-11-13T23:11:56.033Z,64
2022-11-13T23:13:35.749Z,64
2022-11-13T23:15:15.501Z,64
2022-11-13T23:16:55.345Z,63
2022-11-13T23:18:35.065Z,64
2022-11-13T23:20:14.820Z,63
2022-11-13T23:25:14.130Z,63
2022-11-13T23:28:33.613Z,63
2022-11-13T23:30:13.349Z,63
2022-11-13T23:31:53.128Z,63
2022-11-13T23:33:32.905Z,64
2022-11-13T23:35:12.820Z,64
2022-11-13T23:36:52.417Z,63
2022-11-13T23:38:32.178Z,63
2022-11-13T23:40:11.991Z,63
2022-11-13T23:41:51.797Z,63
2022-11-13T23:45:11.299Z,64
2022-11-13T23:48:30.781Z,63
2022-11-13T23:51:50.438Z,63
2022-11-13T23:53:30.064Z,63
2022-11-13T23:55:09.950Z,63
2022-11-13T23:56:49.575Z,63
2022-11-13T23:58:29.346Z,63
